Time;durP1;ratioP1;P1;durP2;ratioP2;P2;SDS_P1;SDS_P2;PMS_P1;PMS_P2;Temp;Humidity;BMP_temperature;BMP_pressure;BME280_temperature;BME280_humidity;BME280_pressure;Samples;Min_cycle;Max_cycle;Signal;HPM_P1;HPM_P2
2023/04/25 00:01:15;;;;;;;1.65;1.55;;;8.40;99.90;;;;;;5072957;28;20020;-70
2023/04/25 00:03:41;;;;;;;0.17;0.17;;;8.50;99.90;;;;;;5072645;28;20050;-70
2023/04/25 00:06:07;;;;;;;0.10;0.10;;;8.60;99.90;;;;;;5072523;28;20025;-70
2023/04/25 00:08:33;;;;;;;1.33;1.25;;;8.60;99.90;;;;;;5054835;28;20025;-71
2023/04/25 00:10:59;;;;;;;0.45;0.45;;;8.70;99.90;;;;;;5072702;28;20464;-70
2023/04/25 00:13:25;;;;;;;0.35;0.35;;;8.60;99.90;;;;;;5072628;28;20031;-70
2023/04/25 00:15:52;;;;;;;0.10;0.10;;;8.60;99.90;;;;;;5072667;28;20082;-70
2023/04/25 00:18:19;;;;;;;0.75;0.75;;;8.70;99.90;;;;;;5055017;28;20442;-70
2023/04/25 00:20:46;;;;;;;0.20;0.20;;;8.70;99.90;;;;;;5072453;28;20493;-69
2023/04/25 00:23:17;;;;;;;0.10;0.10;;;8.70;99.90;;;;;;5072468;28;20094;-70
2023/04/25 00:25:48;;;;;;;0.10;0.10;;;8.90;99.90;;;;;;5072622;28;20031;-70
2023/04/25 00:28:14;;;;;;;1.20;1.10;;;8.80;99.90;;;;;;5072468;28;20742;-70
2023/04/25 00:30:40;;;;;;;0.38;0.38;;;8.90;99.90;;;;;;5038119;28;20388;-70
2023/04/25 00:33:06;;;;;;;0.10;0.10;;;9.00;99.90;;;;;;5037822;28;20040;-70
2023/04/25 00:35:33;;;;;;;0.05;0.05;;;9.20;99.90;;;;;;5072426;28;20413;-71
2023/04/25 00:37:58;;;;;;;0.60;0.60;;;9.20;99.90;;;;;;5062465;28;20032;-70
2023/04/25 00:40:24;;;;;;;0.00;0.00;;;9.00;99.90;;;;;;5072241;28;20401;-70
2023/04/25 00:42:52;;;;;;;0.10;0.10;;;9.10;99.90;;;;;;5037830;28;20017;-72
2023/04/25 00:45:19;;;;;;;0.20;0.20;;;9.10;99.90;;;;;;5054336;28;20081;-71
2023/04/25 00:47:45;;;;;;;0.00;0.00;;;9.00;99.90;;;;;;5057473;28;20418;-70
2023/04/25 00:50:12;;;;;;;0.10;0.10;;;9.10;99.90;;;;;;5075914;28;20033;-70
2023/04/25 00:52:44;;;;;;;0.10;0.10;;;9.20;99.90;;;;;;5058471;28;20068;-70
2023/04/25 00:55:11;;;;;;;0.10;0.10;;;9.40;99.90;;;;;;5076513;28;20089;-71
2023/04/25 00:57:37;;;;;;;0.10;0.10;;;9.40;99.90;;;;;;5074978;28;20480;-70
2023/04/25 01:00:05;;;;;;;0.10;0.10;;;9.20;99.90;;;;;;5058522;28;20024;-70
2023/04/25 01:02:32;;;;;;;0.20;0.20;;;9.10;99.90;;;;;;5076345;28;20478;-70
2023/04/25 01:04:58;;;;;;;0.10;0.10;;;9.10;99.90;;;;;;5075969;28;20110;-70
2023/04/25 01:07:25;;;;;;;0.10;0.10;;;9.00;99.90;;;;;;5058447;28;20067;-71
2023/04/25 01:09:54;;;;;;;0.17;0.17;;;9.30;99.90;;;;;;5075962;28;20544;-70
2023/04/25 01:12:21;;;;;;;1.95;1.85;;;9.20;99.90;;;;;;5076142;28;20036;-71
2023/04/25 01:14:46;;;;;;;0.10;0.10;;;9.10;99.90;;;;;;5076337;28;20055;-70
2023/04/25 01:17:14;;;;;;;0.10;0.10;;;9.10;99.90;;;;;;5058150;28;20056;-70
2023/04/25 01:19:41;;;;;;;0.00;0.00;;;9.10;99.90;;;;;;5075437;28;20024;-70
2023/04/25 01:22:07;;;;;;;0.10;0.10;;;9.10;99.90;;;;;;5075802;28;20366;-70
2023/04/25 01:24:33;;;;;;;0.10;0.10;;;9.10;99.90;;;;;;5075561;28;20032;-71
2023/04/25 01:27:01;;;;;;;0.20;0.20;;;9.20;99.90;;;;;;5057927;28;20071;-70
2023/04/25 01:29:28;;;;;;;0.10;0.10;;;9.10;99.90;;;;;;5057622;28;20039;-71
2023/04/25 01:31:54;;;;;;;0.10;0.10;;;9.00;99.90;;;;;;5057591;28;20504;-71
2023/04/25 01:34:21;;;;;;;0.00;0.00;;;8.90;99.90;;;;;;5057836;28;20469;-72
2023/04/25 01:36:50;;;;;;;0.00;0.00;;;9.00;99.90;;;;;;5075354;28;20033;-70
2023/04/25 01:39:17;;;;;;;7.97;1.40;;;9.10;99.90;;;;;;5061356;28;20036;-73
2023/04/25 01:41:46;;;;;;;0.20;0.20;;;9.10;99.90;;;;;;5073003;28;20446;-71
2023/04/25 01:44:12;;;;;;;1.65;0.63;;;9.00;99.90;;;;;;5074399;28;20032;-69
2023/04/25 01:46:38;;;;;;;0.50;0.50;;;8.90;99.90;;;;;;5073966;28;20086;-71
2023/04/25 01:49:04;;;;;;;0.25;0.25;;;8.90;99.90;;;;;;5072859;28;20439;-70
2023/04/25 01:51:31;;;;;;;0.00;0.00;;;8.80;99.90;;;;;;5073161;28;20059;-70
2023/04/25 01:53:58;;;;;;;0.82;0.82;;;8.70;99.90;;;;;;5072843;28;20047;-71
2023/04/25 01:56:24;;;;;;;0.10;0.10;;;8.80;99.90;;;;;;5072982;28;20025;-70
2023/04/25 01:58:51;;;;;;;0.00;0.00;;;8.70;99.90;;;;;;5072280;28;20016;-71
2023/04/25 02:01:17;;;;;;;0.10;0.10;;;8.70;99.90;;;;;;5073808;28;20070;-70
2023/04/25 02:03:51;;;;;;;0.15;0.15;;;9.00;99.90;;;;;;5058639;28;20017;-71
2023/04/25 02:06:24;;;;;;;2.25;2.15;;;8.90;99.90;;;;;;5059742;28;20084;-70
2023/04/25 02:08:52;;;;;;;1.00;0.98;;;8.70;99.90;;;;;;5056222;28;20029;-70
2023/04/25 02:11:17;;;;;;;5.05;0.68;;;8.70;99.90;;;;;;5072454;28;20496;-70
2023/04/25 02:13:55;;;;;;;0.90;0.90;;;8.50;99.90;;;;;;5072780;28;20029;-70
2023/04/25 02:16:35;;;;;;;0.98;0.35;;;8.50;99.90;;;;;;5072156;28;20240;-70
2023/04/25 02:19:02;;;;;;;0.70;0.55;;;8.70;99.90;;;;;;5072689;28;20485;-70
2023/04/25 02:21:30;;;;;;;0.10;0.10;;;8.80;99.90;;;;;;5072486;28;20025;-70
2023/04/25 02:23:56;;;;;;;0.73;0.73;;;8.70;99.90;;;;;;5072820;28;20045;-73
2023/04/25 02:26:24;;;;;;;4.90;1.77;;;8.70;99.90;;;;;;5072024;28;20469;-71
2023/04/25 02:28:51;;;;;;;0.20;0.20;;;8.60;99.90;;;;;;5072369;28;20043;-70
2023/04/25 02:31:18;;;;;;;2.28;0.32;;;8.50;99.90;;;;;;5072002;28;20031;-71
2023/04/25 02:33:44;;;;;;;0.13;0.13;;;8.50;99.90;;;;;;5067924;28;20029;-70
2023/04/25 02:36:10;;;;;;;0.10;0.10;;;8.50;99.90;;;;;;5061526;28;20020;-71
2023/04/25 02:38:36;;;;;;;5.05;1.05;;;8.50;99.90;;;;;;5033526;28;1139790;-70
2023/04/25 02:41:04;;;;;;;0.00;0.00;;;8.60;99.90;;;;;;5056729;28;20385;-70
2023/04/25 02:43:30;;;;;;;2.40;1.95;;;8.70;99.90;;;;;;5056288;28;20821;-70
2023/04/25 02:45:55;;;;;;;0.68;0.55;;;8.60;99.90;;;;;;5066413;28;20024;-70
2023/04/25 02:48:21;;;;;;;0.03;0.03;;;8.50;99.90;;;;;;5074060;28;20028;-70
2023/04/25 02:50:48;;;;;;;0.15;0.15;;;8.40;99.90;;;;;;5056137;28;20082;-70
2023/04/25 02:53:14;;;;;;;0.10;0.10;;;8.30;99.90;;;;;;5056198;28;20033;-71
2023/04/25 02:55:45;;;;;;;;;;;8.30;99.90;;;;;;5056467;28;20477;-71
2023/04/25 02:58:11;;;;;;;0.05;0.05;;;8.30;99.90;;;;;;5089818;28;19908;-70
2023/04/25 03:00:44;;;;;;;0.10;0.10;;;8.30;99.90;;;;;;5055743;28;20020;-70
2023/04/25 03:03:10;;;;;;;0.10;0.10;;;8.40;99.90;;;;;;5055898;28;20020;-70
2023/04/25 03:05:36;;;;;;;0.82;0.30;;;8.50;99.90;;;;;;5055990;28;20060;-70
2023/04/25 03:08:02;;;;;;;0.30;0.30;;;8.30;99.90;;;;;;5055961;28;20056;-70
2023/04/25 03:10:29;;;;;;;0.10;0.10;;;8.40;99.90;;;;;;5054951;28;20033;-72
2023/04/25 03:13:01;;;;;;;;;;;8.30;99.90;;;;;;5056175;28;20021;-70
2023/04/25 03:15:27;;;;;;;0.15;0.15;;;8.40;99.90;;;;;;5089180;28;19909;-70
2023/04/25 03:17:53;;;;;;;0.20;0.20;;;8.30;99.90;;;;;;5055679;28;20404;-70
2023/04/25 03:20:18;;;;;;;0.30;0.22;;;8.60;99.90;;;;;;5073563;28;20476;-70
2023/04/25 03:22:44;;;;;;;1.85;1.55;;;8.50;99.90;;;;;;5055487;28;20498;-71
2023/04/25 03:25:10;;;;;;;0.13;0.13;;;8.40;99.90;;;;;;5073583;28;20422;-70
2023/04/25 03:27:36;;;;;;;5.65;1.83;;;8.40;99.90;;;;;;5055575;28;20028;-70
2023/04/25 03:30:02;;;;;;;2.42;0.90;;;8.30;99.90;;;;;;5055089;28;20075;-70
2023/04/25 03:32:29;;;;;;;2.05;1.67;;;8.20;99.90;;;;;;5055467;28;20108;-70
2023/04/25 03:34:55;;;;;;;4.25;0.63;;;8.10;99.90;;;;;;5055486;28;20101;-70
2023/04/25 03:37:24;;;;;;;6.18;0.40;;;7.90;99.90;;;;;;5073027;28;20380;-70
2023/04/25 03:39:50;;;;;;;7.22;5.55;;;7.80;99.90;;;;;;5064014;28;20044;-70
2023/04/25 03:42:17;;;;;;;0.47;0.45;;;7.80;99.90;;;;;;5071896;28;20062;-69
2023/04/25 03:44:44;;;;;;;0.10;0.10;;;7.80;99.90;;;;;;5071626;28;20455;-71
2023/04/25 03:47:10;;;;;;;0.10;0.10;;;8.10;99.90;;;;;;5071700;28;20035;-70
2023/04/25 03:49:36;;;;;;;0.65;0.43;;;8.20;99.90;;;;;;5072981;28;20029;-70
2023/04/25 03:52:03;;;;;;;0.20;0.20;;;8.10;99.90;;;;;;5072286;28;20024;-70
2023/04/25 03:54:34;;;;;;;8.57;1.52;;;8.00;99.90;;;;;;5072062;28;20173;-71
2023/04/25 03:57:10;;;;;;;0.10;0.10;;;8.20;99.90;;;;;;5071245;28;20040;-70
2023/04/25 03:59:38;;;;;;;0.00;0.00;;;8.30;99.90;;;;;;5071825;28;20025;-70
2023/04/25 04:02:06;;;;;;;0.00;0.00;;;8.40;99.90;;;;;;5071637;28;20029;-70
2023/04/25 04:04:35;;;;;;;0.10;0.10;;;8.50;99.90;;;;;;5055239;28;20017;-70
2023/04/25 04:07:01;;;;;;;0.10;0.10;;;8.50;99.90;;;;;;5054634;28;20024;-69
2023/04/25 04:09:30;;;;;;;0.00;0.00;;;8.50;99.90;;;;;;5071337;28;20044;-70
2023/04/25 04:11:58;;;;;;;1.92;0.45;;;8.70;99.90;;;;;;5071174;28;20032;-70
2023/04/25 04:14:24;;;;;;;0.10;0.10;;;8.70;99.90;;;;;;5071359;28;20090;-70
2023/04/25 04:16:52;;;;;;;0.10;0.10;;;8.90;99.90;;;;;;5070911;28;20684;-70
2023/04/25 04:19:18;;;;;;;0.10;0.10;;;8.90;99.90;;;;;;5054834;28;20115;-70
2023/04/25 04:21:51;;;;;;;0.10;0.10;;;9.00;99.90;;;;;;5071181;28;20388;-70
2023/04/25 04:24:17;;;;;;;0.00;0.00;;;9.00;99.90;;;;;;5072843;28;20036;-70
2023/04/25 04:26:51;;;;;;;0.10;0.10;;;9.00;99.90;;;;;;5070909;28;20025;-70
2023/04/25 04:29:41;;;;;;;0.10;0.10;;;8.90;99.90;;;;;;5071247;28;20033;-70
2023/04/25 04:32:15;;;;;;;0.20;0.20;;;8.90;99.90;;;;;;5071381;28;20017;-70
2023/04/25 04:34:41;;;;;;;8.90;4.68;;;8.80;99.90;;;;;;5071339;28;20063;-70
2023/04/25 04:37:09;;;;;;;0.10;0.10;;;8.80;99.90;;;;;;5070658;28;20031;-70
2023/04/25 04:39:36;;;;;;;0.10;0.10;;;8.50;99.90;;;;;;5070317;28;20025;-70
2023/04/25 04:42:18;;;;;;;0.10;0.10;;;8.50;99.90;;;;;;5070806;28;20045;-70
2023/04/25 04:45:01;;;;;;;0.10;0.10;;;8.20;99.90;;;;;;5071057;28;20029;-70
2023/04/25 04:47:50;;;;;;;1.08;0.57;;;8.20;99.90;;;;;;5071231;28;20060;-70
2023/04/25 04:50:54;;;;;;;0.20;0.20;;;8.30;99.90;;;;;;5070136;28;20041;-70
2023/04/25 04:53:39;;;;;;;0.47;0.47;;;8.40;99.90;;;;;;5070276;28;20039;-70
2023/04/25 04:56:15;;;;;;;4.68;0.77;;;8.40;99.90;;;;;;5070326;28;20036;-70
2023/04/25 04:58:48;;;;;;;0.10;0.10;;;8.60;99.90;;;;;;5072104;28;20051;-70
2023/04/25 05:01:40;;;;;;;0.25;0.25;;;8.70;99.90;;;;;;5071143;28;20024;-70
2023/04/25 05:04:38;;;;;;;0.85;0.85;;;8.50;99.90;;;;;;5071960;28;20081;-70
2023/04/25 05:07:03;;;;;;;0.20;0.20;;;8.40;99.90;;;;;;5072756;28;20115;-70
2023/04/25 05:09:29;;;;;;;0.10;0.10;;;8.30;99.90;;;;;;5072045;28;20106;-70
2023/04/25 05:12:05;;;;;;;1.23;0.68;;;8.30;99.90;;;;;;5061420;28;20020;-70
2023/04/25 05:14:53;;;;;;;1.17;0.73;;;8.20;99.90;;;;;;5061551;28;20029;-70
2023/04/25 05:17:38;;;;;;;0.98;0.95;;;8.30;99.90;;;;;;5072172;28;20028;-69
2023/04/25 05:20:33;;;;;;;0.90;0.45;;;8.00;99.90;;;;;;5071529;28;20497;-70
2023/04/25 05:23:18;;;;;;;0.10;0.10;;;8.20;99.90;;;;;;5071996;28;20071;-69
2023/04/25 05:25:58;;;;;;;0.20;0.20;;;8.30;99.90;;;;;;5071708;28;20078;-70
2023/04/25 05:28:44;;;;;;;0.10;0.10;;;8.40;99.90;;;;;;5071523;28;20068;-69
2023/04/25 05:31:28;;;;;;;0.10;0.10;;;8.60;99.90;;;;;;5072035;28;20047;-70
2023/04/25 05:34:04;;;;;;;0.00;0.00;;;8.60;99.90;;;;;;5073497;28;20024;-70
2023/04/25 05:36:43;;;;;;;0.10;0.10;;;8.90;99.90;;;;;;5059347;28;20044;-70
2023/04/25 05:39:08;;;;;;;0.10;0.10;;;8.90;99.90;;;;;;5073906;28;20028;-70
2023/04/25 05:41:53;;;;;;;0.10;0.10;;;8.90;99.90;;;;;;5075556;28;20056;-71
2023/04/25 05:44:39;;;;;;;0.10;0.10;;;9.10;99.90;;;;;;5064011;28;20515;-72
2023/04/25 05:47:34;;;;;;;0.10;0.10;;;9.10;99.90;;;;;;5045576;28;20037;-71
2023/04/25 05:50:14;;;;;;;0.10;0.10;;;9.30;99.90;;;;;;5073684;28;20037;-72
2023/04/25 05:52:48;;;;;;;0.20;0.20;;;9.50;99.90;;;;;;5075306;28;20028;-73
2023/04/25 05:55:35;;;;;;;0.15;0.15;;;9.40;99.90;;;;;;5074987;28;20037;-70
2023/04/25 05:58:14;;;;;;;0.20;0.20;;;9.50;99.90;;;;;;5074091;28;20090;-70
2023/04/25 06:00:41;;;;;;;0.10;0.10;;;9.50;99.90;;;;;;5057877;28;20033;-70
2023/04/25 06:03:09;;;;;;;0.10;0.10;;;9.40;99.90;;;;;;5057319;28;20078;-70
2023/04/25 06:05:35;;;;;;;1.70;0.82;;;9.40;99.90;;;;;;5057482;28;20028;-70
2023/04/25 06:08:01;;;;;;;0.13;0.13;;;9.60;99.90;;;;;;5068607;28;20436;-71
2023/04/25 06:10:27;;;;;;;0.17;0.17;;;9.70;99.90;;;;;;5054857;28;20128;-70
2023/04/25 06:12:53;;;;;;;0.10;0.10;;;9.60;99.90;;;;;;5067593;28;20385;-70
2023/04/25 06:15:20;;;;;;;0.60;0.40;;;9.30;99.90;;;;;;5066196;28;20041;-70
2023/04/25 06:17:46;;;;;;;0.10;0.10;;;9.00;99.90;;;;;;5065117;28;20032;-71
2023/04/25 06:20:12;;;;;;;0.10;0.10;;;9.10;99.90;;;;;;5072838;28;20434;-70
2023/04/25 06:22:40;;;;;;;4.40;0.90;;;9.20;99.90;;;;;;5053480;28;20481;-71
2023/04/25 06:25:07;;;;;;;3.30;0.85;;;8.90;99.90;;;;;;5076974;28;20112;-70
2023/04/25 06:27:34;;;;;;;0.35;0.35;;;9.00;99.90;;;;;;5063431;28;20017;-71
2023/04/25 06:30:00;;;;;;;0.90;0.73;;;9.00;99.90;;;;;;5057550;28;20033;-70
2023/04/25 06:32:28;;;;;;;0.28;0.28;;;8.80;99.90;;;;;;5055657;28;20028;-70
2023/04/25 06:34:54;;;;;;;2.28;2.08;;;8.80;99.90;;;;;;5053042;28;20025;-71
2023/04/25 06:37:21;;;;;;;0.10;0.10;;;9.00;99.90;;;;;;5056332;28;20016;-71
2023/04/25 06:39:47;;;;;;;0.00;0.00;;;8.90;99.90;;;;;;5092449;28;20357;-70
2023/04/25 06:42:14;;;;;;;0.60;0.50;;;9.00;99.90;;;;;;5056913;28;20068;-70
2023/04/25 06:44:48;;;;;;;3.25;0.77;;;9.10;99.90;;;;;;5053169;28;20120;-71
2023/04/25 06:47:14;;;;;;;1.15;0.40;;;9.00;99.90;;;;;;5059059;28;20071;-70
2023/04/25 06:49:42;;;;;;;0.10;0.10;;;8.90;99.90;;;;;;5052332;28;20047;-71
2023/04/25 06:52:10;;;;;;;0.28;0.28;;;8.90;99.90;;;;;;5058159;28;20021;-72
2023/04/25 06:54:36;;;;;;;2.15;1.80;;;8.70;99.90;;;;;;5061395;28;20124;-71
2023/04/25 06:57:17;;;;;;;0.10;0.10;;;8.80;99.90;;;;;;5071974;28;20033;-72
2023/04/25 06:59:43;;;;;;;0.20;0.20;;;8.90;99.90;;;;;;5067846;28;20025;-71
2023/04/25 07:02:09;;;;;;;1.40;1.30;;;9.20;99.90;;;;;;5047809;28;20013;-71
2023/04/25 07:04:35;;;;;;;0.20;0.20;;;9.30;99.90;;;;;;5051459;28;20082;-72
2023/04/25 07:07:03;;;;;;;1.50;1.48;;;9.30;99.90;;;;;;5052451;28;20028;-72
2023/04/25 07:09:36;;;;;;;0.10;0.10;;;9.30;99.90;;;;;;5056911;28;20136;-71
2023/04/25 07:12:03;;;;;;;0.03;0.03;;;9.30;99.90;;;;;;5057102;28;20108;-72
2023/04/25 07:14:29;;;;;;;0.30;0.30;;;9.20;99.90;;;;;;5054724;28;20029;-70
2023/04/25 07:16:56;;;;;;;0.20;0.20;;;9.20;99.90;;;;;;5050618;28;20025;-70
2023/04/25 07:19:26;;;;;;;3.83;1.88;;;9.20;99.90;;;;;;5050721;28;20024;-71
2023/04/25 07:21:53;;;;;;;0.57;0.57;;;9.20;99.90;;;;;;5033500;28;20095;-71
2023/04/25 07:24:19;;;;;;;0.52;0.20;;;9.20;99.90;;;;;;5088687;28;20025;-69
2023/04/25 07:26:47;;;;;;;0.32;0.32;;;9.20;99.90;;;;;;5052088;28;20024;-71
2023/04/25 07:29:25;;;;;;;1.02;0.35;;;9.30;99.90;;;;;;5051325;28;20485;-70
2023/04/25 07:31:50;;;;;;;0.00;0.00;;;9.40;99.90;;;;;;5051465;28;20051;-69
2023/04/25 07:34:16;;;;;;;0.10;0.10;;;9.30;99.90;;;;;;5042402;28;20037;-72
2023/04/25 07:36:43;;;;;;;0.85;0.70;;;9.40;99.90;;;;;;5046713;28;20021;-71
2023/04/25 07:39:09;;;;;;;8.98;2.08;;;9.30;99.90;;;;;;5051712;28;20021;-71
2023/04/25 07:41:36;;;;;;;0.68;0.68;;;9.00;99.90;;;;;;5051806;28;20029;-71
2023/04/25 07:44:02;;;;;;;0.85;0.85;;;8.60;99.90;;;;;;5051897;28;20070;-71
2023/04/25 07:46:29;;;;;;;0.75;0.75;;;8.50;99.90;;;;;;5051784;28;20036;-71
2023/04/25 07:48:55;;;;;;;0.20;0.20;;;8.60;99.90;;;;;;5048142;28;20041;-72
2023/04/25 07:51:22;;;;;;;1.45;1.25;;;8.50;99.90;;;;;;5039366;28;20029;-72
2023/04/25 07:53:48;;;;;;;0.20;0.20;;;8.40;99.90;;;;;;5051563;28;20548;-72
2023/04/25 07:56:16;;;;;;;2.42;0.60;;;8.40;99.90;;;;;;5070330;28;20396;-72
2023/04/25 07:58:44;;;;;;;3.00;2.78;;;8.70;99.90;;;;;;5055510;28;20116;-72
2023/04/25 08:01:13;;;;;;;2.17;1.35;;;9.00;99.90;;;;;;5071338;28;20431;-72
2023/04/25 08:04:00;;;;;;;0.30;0.30;;;9.20;99.90;;;;;;5071533;28;20481;-72
2023/04/25 08:06:42;;;;;;;8.95;1.20;;;9.50;99.90;;;;;;5071772;28;20028;-72
2023/04/25 08:09:15;;;;;;;6.25;2.33;;;9.80;99.90;;;;;;5071579;28;20473;-72
2023/04/25 08:11:42;;;;;;;0.28;0.28;;;10.00;99.90;;;;;;5071689;28;20115;-72
2023/04/25 08:14:11;;;;;;;0.47;0.40;;;10.40;99.90;;;;;;5071520;28;20119;-72
2023/04/25 08:16:38;;;;;;;0.25;0.25;;;10.60;99.90;;;;;;5054702;28;20025;-72
2023/04/25 08:19:04;;;;;;;0.30;0.25;;;10.60;99.90;;;;;;5070872;28;20397;-71
2023/04/25 08:21:31;;;;;;;0.20;0.20;;;10.70;99.90;;;;;;5054809;28;20473;-72
2023/04/25 08:23:59;;;;;;;0.30;0.30;;;10.60;99.90;;;;;;5071342;28;20026;-71
2023/04/25 08:26:32;;;;;;;0.63;0.55;;;10.40;99.90;;;;;;5068464;28;20025;-72
2023/04/25 08:28:59;;;;;;;0.47;0.40;;;10.50;99.90;;;;;;5072515;28;20029;-72
2023/04/25 08:31:25;;;;;;;0.10;0.10;;;10.50;99.90;;;;;;5071167;28;20032;-72
2023/04/25 08:33:57;;;;;;;1.55;0.28;;;10.70;99.90;;;;;;5071185;28;20020;-72
2023/04/25 08:36:32;;;;;;;0.60;0.50;;;10.70;99.90;;;;;;5071114;28;20024;-72
2023/04/25 08:38:58;;;;;;;0.65;0.40;;;10.70;99.90;;;;;;5071063;28;20028;-72
2023/04/25 08:41:26;;;;;;;0.65;0.38;;;10.80;99.90;;;;;;5071314;28;20383;-71
2023/04/25 08:43:55;;;;;;;0.05;0.05;;;10.60;99.90;;;;;;5072296;28;20081;-72
2023/04/25 08:46:21;;;;;;;0.50;0.50;;;10.30;99.90;;;;;;5071189;28;20013;-71
2023/04/25 08:49:09;;;;;;;3.40;1.20;;;10.40;99.90;;;;;;5070768;28;20544;-72
2023/04/25 08:51:43;;;;;;;0.10;0.10;;;10.40;99.90;;;;;;5071126;28;20493;-71
2023/04/25 08:54:11;;;;;;;2.08;0.75;;;10.50;99.90;;;;;;5070783;28;20119;-71
2023/04/25 08:56:48;;;;;;;2.55;0.65;;;10.60;99.90;;;;;;5054464;28;20043;-72
2023/04/25 08:59:14;;;;;;;1.75;0.60;;;10.60;99.10;;;;;;5054174;28;20476;-72
2023/04/25 09:01:42;;;;;;;1.98;0.90;;;10.40;99.90;;;;;;5071055;28;20029;-71
2023/04/25 09:04:08;;;;;;;0.10;0.10;;;10.50;99.10;;;;;;5071040;28;20032;-72
2023/04/25 09:06:34;;;;;;;0.10;0.10;;;10.50;98.90;;;;;;5070811;28;20029;-72
2023/04/25 09:09:06;;;;;;;0.00;0.00;;;10.40;99.60;;;;;;5073847;28;20036;-72
2023/04/25 09:11:34;;;;;;;0.10;0.10;;;10.70;99.90;;;;;;5075943;28;20029;-72
2023/04/25 09:14:17;;;;;;;1.80;0.65;;;11.20;99.90;;;;;;5074952;28;20032;-72
2023/04/25 09:17:05;;;;;;;2.53;1.10;;;11.50;99.90;;;;;;5075364;28;20043;-72
2023/04/25 09:19:39;;;;;;;0.20;0.20;;;11.80;99.90;;;;;;5074319;28;20032;-72
2023/04/25 09:22:10;;;;;;;0.10;0.10;;;11.90;99.80;;;;;;5074586;28;20028;-73
2023/04/25 09:24:43;;;;;;;0.52;0.52;;;12.30;99.90;;;;;;5074467;28;20115;-72
2023/04/25 09:27:13;;;;;;;3.58;0.30;;;12.20;99.90;;;;;;5074644;28;20020;-72
2023/04/25 09:29:41;;;;;;;0.20;0.20;;;11.40;99.90;;;;;;5074221;28;20029;-73
2023/04/25 09:32:16;;;;;;;0.20;0.20;;;11.70;99.90;;;;;;5074199;28;20021;-71
2023/04/25 09:34:50;;;;;;;0.40;0.30;;;11.80;99.90;;;;;;5067981;28;20036;-72
2023/04/25 09:37:22;;;;;;;0.10;0.10;;;11.60;99.90;;;;;;5074582;28;20032;-72
2023/04/25 09:40:20;;;;;;;0.30;0.30;;;11.90;99.90;;;;;;5062865;28;20041;-72
2023/04/25 09:42:58;;;;;;;0.10;0.10;;;12.00;99.90;;;;;;5073604;28;20021;-72
2023/04/25 09:45:25;;;;;;;2.47;0.73;;;12.10;99.90;;;;;;5071478;28;20040;-72
2023/04/25 09:47:56;;;;;;;2.90;0.77;;;12.50;99.90;;;;;;5074067;28;20385;-72
2023/04/25 09:50:24;;;;;;;4.38;0.68;;;12.10;99.90;;;;;;5073494;28;20044;-72
2023/04/25 09:53:07;;;;;;;0.00;0.00;;;12.20;99.90;;;;;;5074197;28;20050;-72
2023/04/25 09:55:53;;;;;;;0.80;0.32;;;12.10;99.90;;;;;;5074416;28;20123;-72
2023/04/25 09:58:20;;;;;;;2.72;0.43;;;12.00;99.90;;;;;;5074030;28;20056;-73
2023/04/25 10:00:46;;;;;;;0.32;0.32;;;11.90;97.90;;;;;;5074763;28;20058;-72
2023/04/25 10:03:26;;;;;;;0.32;0.32;;;12.00;97.50;;;;;;5073941;28;20074;-72
2023/04/25 10:06:19;;;;;;;0.10;0.10;;;11.90;96.70;;;;;;5073561;28;20380;-72
2023/04/25 10:08:49;;;;;;;0.00;0.00;;;12.10;98.00;;;;;;5073964;28;20046;-72
2023/04/25 10:11:16;;;;;;;0.30;0.30;;;12.00;97.90;;;;;;5073632;28;20444;-72
2023/04/25 10:13:42;;;;;;;4.57;0.93;;;11.30;98.30;;;;;;5075242;28;20456;-72
2023/04/25 10:16:08;;;;;;;0.20;0.20;;;11.60;98.40;;;;;;5074430;28;20028;-72
2023/04/25 10:18:34;;;;;;;0.10;0.10;;;11.70;98.70;;;;;;5074889;28;20025;-72
2023/04/25 10:21:03;;;;;;;0.80;0.52;;;12.00;98.40;;;;;;5074623;28;20460;-72
2023/04/25 10:23:31;;;;;;;3.55;0.40;;;12.10;97.70;;;;;;5074797;28;20388;-72
2023/04/25 10:25:58;;;;;;;0.10;0.10;;;12.00;96.90;;;;;;5074598;28;20044;-72
2023/04/25 10:28:24;;;;;;;0.10;0.10;;;11.90;97.50;;;;;;5074337;28;20017;-72
2023/04/25 10:31:05;;;;;;;2.67;1.30;;;12.20;97.50;;;;;;5056532;28;20037;-72
2023/04/25 10:33:39;;;;;;;2.90;0.52;;;12.50;98.10;;;;;;5074437;28;20073;-72
2023/04/25 10:36:17;;;;;;;0.52;0.20;;;12.40;97.10;;;;;;5074579;28;20032;-73
2023/04/25 10:38:43;;;;;;;1.80;0.93;;;12.00;96.20;;;;;;5074216;28;20044;-72
2023/04/25 10:41:11;;;;;;;2.97;0.45;;;12.00;97.20;;;;;;5063790;28;20035;-72
2023/04/25 10:43:42;;;;;;;4.93;0.35;;;12.40;98.10;;;;;;5052843;28;20024;-72
2023/04/25 10:46:24;;;;;;;0.10;0.10;;;12.80;98.40;;;;;;5074275;28;20039;-72
2023/04/25 10:48:53;;;;;;;;;;;12.90;96.50;;;;;;5074482;28;20020;-72
2023/04/25 10:51:22;;;;;;;1.35;0.22;;;13.60;95.70;;;;;;5073954;28;19962;-72
2023/04/25 10:54:01;;;;;;;16.33;0.95;;;13.60;95.20;;;;;;5074080;28;20036;-72
2023/04/25 10:56:37;;;;;;;0.50;0.40;;;13.90;95.60;;;;;;5074144;28;20033;-72
2023/04/25 10:59:10;;;;;;;3.10;0.52;;;13.30;95.10;;;;;;5055837;28;20037;-72
2023/04/25 11:01:46;;;;;;;0.10;0.10;;;13.40;96.20;;;;;;5055932;28;20028;-73
2023/04/25 11:04:30;;;;;;;0.00;0.00;;;13.80;95.00;;;;;;5073854;28;20032;-73
2023/04/25 11:07:05;;;;;;;0.80;0.80;;;14.10;93.70;;;;;;5073783;28;20024;-73
2023/04/25 11:09:34;;;;;;;0.20;0.20;;;14.00;93.00;;;;;;5073640;28;20076;-73
2023/04/25 11:12:00;;;;;;;0.10;0.10;;;14.10;92.80;;;;;;5073558;28;20025;-74
2023/04/25 11:14:27;;;;;;;0.08;0.08;;;14.30;93.80;;;;;;5073581;28;20390;-74
2023/04/25 11:16:57;;;;;;;0.10;0.10;;;14.20;94.60;;;;;;5039194;28;20185;-73
2023/04/25 11:19:24;;;;;;;1.00;0.32;;;14.60;93.20;;;;;;5073500;28;20381;-73
2023/04/25 11:21:50;;;;;;;0.30;0.30;;;14.60;93.50;;;;;;5055549;28;20063;-73
2023/04/25 11:24:17;;;;;;;0.28;0.28;;;14.80;93.60;;;;;;5055663;28;20046;-75
2023/04/25 11:26:47;;;;;;;11.70;6.45;;;14.70;93.60;;;;;;5071793;28;20012;-73
2023/04/25 11:29:13;;;;;;;4.03;1.23;;;14.80;92.80;;;;;;5045194;28;20379;-72
2023/04/25 11:31:42;;;;;;;0.10;0.10;;;14.90;92.30;;;;;;5052209;28;20036;-72
2023/04/25 11:34:08;;;;;;;0.40;0.20;;;15.00;94.10;;;;;;5053200;28;20017;-73
2023/04/25 11:36:34;;;;;;;0.32;0.30;;;14.30;94.90;;;;;;5052958;28;20036;-72
2023/04/25 11:39:00;;;;;;;0.00;0.00;;;13.30;95.60;;;;;;5045459;28;20493;-72
2023/04/25 11:41:26;;;;;;;1.35;0.80;;;12.70;96.10;;;;;;5055572;28;20079;-73
2023/04/25 11:43:54;;;;;;;0.65;0.43;;;12.70;96.60;;;;;;5036706;28;20040;-72
2023/04/25 11:46:19;;;;;;;0.30;0.30;;;12.90;96.20;;;;;;5034632;28;20092;-72
2023/04/25 11:48:46;;;;;;;2.53;0.80;;;13.00;95.70;;;;;;5059018;28;20128;-72
2023/04/25 11:51:12;;;;;;;0.00;0.00;;;13.20;96.00;;;;;;5017158;28;20029;-72
2023/04/25 11:53:41;;;;;;;0.10;0.10;;;13.30;95.10;;;;;;5033223;28;20032;-72
2023/04/25 11:56:13;;;;;;;0.00;0.00;;;13.80;95.00;;;;;;5063622;28;20455;-72
2023/04/25 11:59:03;;;;;;;0.47;0.43;;;14.10;95.60;;;;;;5072249;28;20099;-73
2023/04/25 12:01:33;;;;;;;0.10;0.10;;;15.00;93.70;;;;;;5048154;28;20457;-73
2023/04/25 12:04:16;;;;;;;0.93;0.88;;;14.90;93.00;;;;;;5072963;28;20103;-73
2023/04/25 12:06:46;;;;;;;0.20;0.20;;;14.60;93.90;;;;;;5051591;28;20115;-73
2023/04/25 12:09:18;;;;;;;0.52;0.52;;;14.70;94.00;;;;;;5058788;28;20435;-73
2023/04/25 12:11:45;;;;;;;0.10;0.10;;;14.50;93.90;;;;;;5058491;28;20064;-71
2023/04/25 12:14:32;;;;;;;1.65;0.30;;;14.30;94.70;;;;;;5037404;28;20044;-74
2023/04/25 12:17:00;;;;;;;0.10;0.10;;;13.40;94.20;;;;;;5055965;28;20032;-71
2023/04/25 12:19:26;;;;;;;0.10;0.10;;;13.30;95.70;;;;;;5034839;28;20048;-73
2023/04/25 12:21:52;;;;;;;0.00;0.00;;;13.60;95.60;;;;;;5042246;28;20721;-70
2023/04/25 12:24:25;;;;;;;0.10;0.10;;;13.80;95.70;;;;;;5054046;28;20039;-71
2023/04/25 12:26:51;;;;;;;1.25;0.10;;;13.70;95.50;;;;;;5061563;28;20133;-73
2023/04/25 12:29:22;;;;;;;1.15;0.40;;;13.10;95.40;;;;;;5071778;28;20033;-73
2023/04/25 12:31:49;;;;;;;0.10;0.10;;;13.40;94.70;;;;;;5071296;28;20062;-72
2023/04/25 12:34:15;;;;;;;0.22;0.22;;;14.50;94.90;;;;;;5071795;28;20062;-73
2023/04/25 12:36:41;;;;;;;0.73;0.20;;;14.80;93.70;;;;;;5071757;28;20035;-73
2023/04/25 12:39:07;;;;;;;0.10;0.10;;;14.30;93.00;;;;;;5052692;28;20029;-73
2023/04/25 12:41:33;;;;;;;0.10;0.10;;;13.60;93.90;;;;;;5034644;28;20389;-71
2023/04/25 12:43:59;;;;;;;22.33;0.30;;;13.40;93.80;;;;;;5059274;28;20290;-71
2023/04/25 12:46:25;;;;;;;0.77;0.77;;;13.60;93.50;;;;;;5070992;28;20536;-73
2023/04/25 12:48:51;;;;;;;0.17;0.17;;;14.60;93.20;;;;;;5046621;28;20049;-73
2023/04/25 12:51:17;;;;;;;3.92;1.65;;;15.60;92.50;;;;;;5041866;28;20120;-74
2023/04/25 12:53:43;;;;;;;0.77;0.65;;;15.00;92.20;;;;;;5058252;28;20055;-71
2023/04/25 12:56:08;;;;;;;1.17;1.10;;;14.70;92.60;;;;;;5057692;28;20035;-71
2023/04/25 12:58:35;;;;;;;2.22;0.70;;;14.90;91.20;;;;;;5046459;28;20032;-71
2023/04/25 13:01:00;;;;;;;0.08;0.08;;;15.60;91.70;;;;;;5056464;28;20025;-71
2023/04/25 13:03:26;;;;;;;0.17;0.17;;;17.00;91.40;;;;;;5055952;28;20116;-71
2023/04/25 13:05:52;;;;;;;0.05;0.05;;;16.90;90.00;;;;;;5045866;28;20047;-71
2023/04/25 13:08:19;;;;;;;0.47;0.30;;;16.70;90.60;;;;;;5037282;28;20025;-71